Hlavní strana
METAR-TAF:

METAR-TAF

Letiště :

Pisa, Itálie

zeměpisná šířka: 43-41N, zeměpisná délka: 010-23E, výška: 2 m

Aktuální stav počasí

Zpráva byla vytvořena před 29 minutami, v 16:45 UTC
Východoseverovýchodní vítr 6 kt
Teplota 12°C
Vlhkost vzduchu 54%
Tlak 1020 hPa
Viditelnost 10 km a více
Skoro jasno ve výšce 6000 ft

METAR: LIRP 171645Z 07006KT 9999 FEW060 12/03 Q1020 NOSIG

Čas: 18:14 (17:14 UTC)

Předpověď počasí

Zpráva byla vytvořena před 6 hodinami a 14 minutami, v 11:00 UTC
Předpověď platná od 17 v 12 UTC do 18 v 12 UTC
Východoseverovýchodní vítr 15 kt
Viditelnost 10 km a více
Polojasno ve výšce 7000 ft
Dočasný
od 17 v 12 UTC do 17 v 18 UTC
Východoseverovýchodní vítr 15 kt s nárazy do 27 kt

TAF: LIRP 171100Z 1712/1812 06015KT 9999 SCT070 TEMPO 1712/1718 06015G27KT

Stav a předpovědi počasí z více než 4 000 letišť (zprávy METAR a TAF).

Červené a žluté tečky na mapě představují dostupné meteorologické stanice.

Když kurzor umístíte na tečku, zobrazí se název stanice.

Pak kliknutím zobrazíte stav a předpověď počasí.

Chcete-li změnit mapu, kliknutím na zelené tlačítko se znaménkem +mapu přiblížíte, kliknutím na zelené tlačítko se znaménkem – mapu oddálíte a kliknutím na zelené šipky přejdete na sousední mapy.


METAR-TAF: